sensor_id;sensor_type;location;lat;lon;timestamp;P1;durP1;ratioP1;P2;durP2;ratioP2
29344;SDS011;16339;48.748;2.222;2022-08-02T00:00:02;3.17;;;2.88;;
29344;SDS011;16339;48.748;2.222;2022-08-02T00:02:38;5.47;;;2.90;;
29344;SDS011;16339;48.748;2.222;2022-08-02T00:05:08;5.05;;;3.08;;
29344;SDS011;16339;48.748;2.222;2022-08-02T00:07:37;4.38;;;2.90;;
29344;SDS011;16339;48.748;2.222;2022-08-02T00:10:07;4.30;;;2.92;;
29344;SDS011;16339;48.748;2.222;2022-08-02T00:12:41;4.35;;;3.08;;
29344;SDS011;16339;48.748;2.222;2022-08-02T00:15:09;5.53;;;3.03;;
29344;SDS011;16339;48.748;2.222;2022-08-02T00:17:41;4.28;;;3.30;;
29344;SDS011;16339;48.748;2.222;2022-08-02T00:20:10;4.15;;;2.80;;
29344;SDS011;16339;48.748;2.222;2022-08-02T00:22:39;4.30;;;3.30;;
29344;SDS011;16339;48.748;2.222;2022-08-02T00:25:08;6.57;;;2.80;;
29344;SDS011;16339;48.748;2.222;2022-08-02T00:27:37;4.60;;;3.10;;
29344;SDS011;16339;48.748;2.222;2022-08-02T00:30:06;4.68;;;3.00;;
29344;SDS011;16339;48.748;2.222;2022-08-02T00:32:36;4.20;;;2.90;;
29344;SDS011;16339;48.748;2.222;2022-08-02T00:35:08;4.95;;;3.30;;
29344;SDS011;16339;48.748;2.222;2022-08-02T00:37:37;7.05;;;3.33;;
29344;SDS011;16339;48.748;2.222;2022-08-02T00:40:10;3.22;;;2.90;;
29344;SDS011;16339;48.748;2.222;2022-08-02T00:42:39;3.70;;;3.00;;
29344;SDS011;16339;48.748;2.222;2022-08-02T00:45:08;5.25;;;2.88;;
29344;SDS011;16339;48.748;2.222;2022-08-02T00:47:37;4.38;;;2.70;;
29344;SDS011;16339;48.748;2.222;2022-08-02T00:50:09;7.72;;;2.90;;
29344;SDS011;16339;48.748;2.222;2022-08-02T00:52:38;8.05;;;3.15;;
29344;SDS011;16339;48.748;2.222;2022-08-02T00:55:07;5.10;;;2.97;;
29344;SDS011;16339;48.748;2.222;2022-08-02T00:57:36;4.05;;;3.10;;
29344;SDS011;16339;48.748;2.222;2022-08-02T01:00:09;3.80;;;2.60;;
29344;SDS011;16339;48.748;2.222;2022-08-02T01:02:38;5.07;;;2.75;;
29344;SDS011;16339;48.748;2.222;2022-08-02T01:05:10;4.07;;;3.00;;
29344;SDS011;16339;48.748;2.222;2022-08-02T01:07:43;3.92;;;2.92;;
29344;SDS011;16339;48.748;2.222;2022-08-02T01:10:16;6.55;;;2.75;;
29344;SDS011;16339;48.748;2.222;2022-08-02T01:12:45;5.07;;;2.90;;
29344;SDS011;16339;48.748;2.222;2022-08-02T01:15:14;8.95;;;3.35;;
29344;SDS011;16339;48.748;2.222;2022-08-02T01:17:46;4.85;;;3.20;;
29344;SDS011;16339;48.748;2.222;2022-08-02T01:23:22;4.72;;;2.60;;
29344;SDS011;16339;48.748;2.222;2022-08-02T01:26:08;4.45;;;2.97;;
29344;SDS011;16339;48.748;2.222;2022-08-02T01:28:59;3.72;;;3.08;;
29344;SDS011;16339;48.748;2.222;2022-08-02T01:31:31;5.00;;;3.00;;
29344;SDS011;16339;48.748;2.222;2022-08-02T01:34:05;3.45;;;2.90;;
29344;SDS011;16339;48.748;2.222;2022-08-02T01:36:47;3.85;;;2.85;;
29344;SDS011;16339;48.748;2.222;2022-08-02T01:39:23;3.50;;;3.13;;
29344;SDS011;16339;48.748;2.222;2022-08-02T01:41:55;4.35;;;3.33;;
29344;SDS011;16339;48.748;2.222;2022-08-02T01:44:29;3.40;;;2.97;;
29344;SDS011;16339;48.748;2.222;2022-08-02T01:47:02;3.85;;;3.15;;
29344;SDS011;16339;48.748;2.222;2022-08-02T01:49:33;3.08;;;2.78;;
29344;SDS011;16339;48.748;2.222;2022-08-02T01:52:04;4.82;;;2.80;;
29344;SDS011;16339;48.748;2.222;2022-08-02T01:54:49;3.80;;;3.00;;
29344;SDS011;16339;48.748;2.222;2022-08-02T01:57:23;4.60;;;3.30;;
29344;SDS011;16339;48.748;2.222;2022-08-02T02:00:00;3.20;;;2.90;;
29344;SDS011;16339;48.748;2.222;2022-08-02T02:02:31;5.35;;;3.10;;
29344;SDS011;16339;48.748;2.222;2022-08-02T02:05:05;5.78;;;3.10;;
29344;SDS011;16339;48.748;2.222;2022-08-02T02:07:35;5.72;;;3.40;;
29344;SDS011;16339;48.748;2.222;2022-08-02T02:10:06;4.85;;;3.08;;
29344;SDS011;16339;48.748;2.222;2022-08-02T02:12:39;3.80;;;3.05;;
29344;SDS011;16339;48.748;2.222;2022-08-02T02:15:13;6.35;;;3.33;;
29344;SDS011;16339;48.748;2.222;2022-08-02T02:17:43;5.10;;;2.92;;
29344;SDS011;16339;48.748;2.222;2022-08-02T02:20:15;4.82;;;3.15;;
29344;SDS011;16339;48.748;2.222;2022-08-02T02:22:45;5.18;;;3.38;;
29344;SDS011;16339;48.748;2.222;2022-08-02T02:25:18;4.95;;;3.33;;
29344;SDS011;16339;48.748;2.222;2022-08-02T02:27:51;3.38;;;2.83;;
29344;SDS011;16339;48.748;2.222;2022-08-02T02:30:27;6.43;;;3.30;;
29344;SDS011;16339;48.748;2.222;2022-08-02T02:32:59;6.20;;;3.40;;
29344;SDS011;16339;48.748;2.222;2022-08-02T02:35:33;5.22;;;3.50;;
29344;SDS011;16339;48.748;2.222;2022-08-02T02:38:05;3.25;;;2.90;;
29344;SDS011;16339;48.748;2.222;2022-08-02T02:40:38;4.68;;;2.83;;
29344;SDS011;16339;48.748;2.222;2022-08-02T02:43:08;3.15;;;2.67;;
29344;SDS011;16339;48.748;2.222;2022-08-02T02:45:45;6.10;;;3.35;;
29344;SDS011;16339;48.748;2.222;2022-08-02T02:48:14;3.60;;;3.13;;
29344;SDS011;16339;48.748;2.222;2022-08-02T02:50:44;4.30;;;2.95;;
29344;SDS011;16339;48.748;2.222;2022-08-02T02:53:15;5.53;;;3.10;;
29344;SDS011;16339;48.748;2.222;2022-08-02T02:55:49;4.40;;;3.35;;
29344;SDS011;16339;48.748;2.222;2022-08-02T02:58:19;3.97;;;3.10;;
29344;SDS011;16339;48.748;2.222;2022-08-02T03:00:51;5.25;;;3.17;;
29344;SDS011;16339;48.748;2.222;2022-08-02T03:03:33;3.78;;;3.03;;
29344;SDS011;16339;48.748;2.222;2022-08-02T03:06:02;3.17;;;2.85;;
29344;SDS011;16339;48.748;2.222;2022-08-02T03:08:31;3.55;;;2.70;;
29344;SDS011;16339;48.748;2.222;2022-08-02T03:11:01;5.07;;;3.03;;
29344;SDS011;16339;48.748;2.222;2022-08-02T03:13:30;3.20;;;2.90;;
29344;SDS011;16339;48.748;2.222;2022-08-02T03:16:02;3.22;;;2.85;;
29344;SDS011;16339;48.748;2.222;2022-08-02T03:18:32;4.78;;;3.30;;
29344;SDS011;16339;48.748;2.222;2022-08-02T03:21:02;4.78;;;3.20;;
29344;SDS011;16339;48.748;2.222;2022-08-02T03:23:33;6.53;;;2.92;;
29344;SDS011;16339;48.748;2.222;2022-08-02T03:26:01;6.80;;;2.97;;
29344;SDS011;16339;48.748;2.222;2022-08-02T03:28:30;5.05;;;2.80;;
29344;SDS011;16339;48.748;2.222;2022-08-02T03:31:02;3.63;;;2.90;;
29344;SDS011;16339;48.748;2.222;2022-08-02T03:33:31;5.47;;;3.17;;
29344;SDS011;16339;48.748;2.222;2022-08-02T03:36:05;3.10;;;2.60;;
29344;SDS011;16339;48.748;2.222;2022-08-02T03:38:37;4.43;;;3.20;;
29344;SDS011;16339;48.748;2.222;2022-08-02T03:41:07;5.28;;;3.22;;
29344;SDS011;16339;48.748;2.222;2022-08-02T03:43:38;4.22;;;3.10;;
29344;SDS011;16339;48.748;2.222;2022-08-02T03:46:11;6.95;;;3.47;;
29344;SDS011;16339;48.748;2.222;2022-08-02T03:48:41;5.82;;;3.15;;
29344;SDS011;16339;48.748;2.222;2022-08-02T03:51:14;3.88;;;2.67;;
29344;SDS011;16339;48.748;2.222;2022-08-02T03:53:46;4.05;;;3.05;;
29344;SDS011;16339;48.748;2.222;2022-08-02T03:56:15;4.55;;;3.20;;
29344;SDS011;16339;48.748;2.222;2022-08-02T03:58:44;4.22;;;3.08;;
29344;SDS011;16339;48.748;2.222;2022-08-02T04:01:15;5.43;;;3.10;;
29344;SDS011;16339;48.748;2.222;2022-08-02T04:03:44;6.88;;;3.50;;
29344;SDS011;16339;48.748;2.222;2022-08-02T04:06:13;4.38;;;3.28;;
29344;SDS011;16339;48.748;2.222;2022-08-02T04:08:42;3.78;;;3.03;;
29344;SDS011;16339;48.748;2.222;2022-08-02T04:11:10;3.45;;;2.88;;
29344;SDS011;16339;48.748;2.222;2022-08-02T04:13:51;4.88;;;3.28;;
29344;SDS011;16339;48.748;2.222;2022-08-02T04:16:26;3.72;;;3.13;;
29344;SDS011;16339;48.748;2.222;2022-08-02T04:19:03;3.97;;;3.17;;
29344;SDS011;16339;48.748;2.222;2022-08-02T04:21:35;4.65;;;3.30;;
29344;SDS011;16339;48.748;2.222;2022-08-02T04:24:07;4.65;;;2.80;;
29344;SDS011;16339;48.748;2.222;2022-08-02T04:26:41;3.72;;;2.92;;
29344;SDS011;16339;48.748;2.222;2022-08-02T04:29:11;4.90;;;3.20;;
29344;SDS011;16339;48.748;2.222;2022-08-02T04:31:43;5.10;;;3.17;;
29344;SDS011;16339;48.748;2.222;2022-08-02T04:34:12;5.30;;;3.45;;
29344;SDS011;16339;48.748;2.222;2022-08-02T04:36:41;6.45;;;3.58;;
29344;SDS011;16339;48.748;2.222;2022-08-02T04:39:10;4.25;;;3.22;;
29344;SDS011;16339;48.748;2.222;2022-08-02T04:41:39;5.38;;;3.30;;
29344;SDS011;16339;48.748;2.222;2022-08-02T04:44:10;10.48;;;4.05;;
29344;SDS011;16339;48.748;2.222;2022-08-02T04:46:39;5.57;;;3.28;;
29344;SDS011;16339;48.748;2.222;2022-08-02T04:49:12;7.70;;;3.65;;
29344;SDS011;16339;48.748;2.222;2022-08-02T04:51:41;6.88;;;3.13;;
29344;SDS011;16339;48.748;2.222;2022-08-02T04:54:10;10.30;;;3.53;;
29344;SDS011;16339;48.748;2.222;2022-08-02T04:56:40;3.63;;;3.17;;
29344;SDS011;16339;48.748;2.222;2022-08-02T04:59:11;8.45;;;3.10;;
29344;SDS011;16339;48.748;2.222;2022-08-02T05:01:43;5.88;;;3.30;;
29344;SDS011;16339;48.748;2.222;2022-08-02T05:04:12;7.45;;;3.40;;
29344;SDS011;16339;48.748;2.222;2022-08-02T05:06:40;11.35;;;3.40;;
29344;SDS011;16339;48.748;2.222;2022-08-02T05:09:12;5.40;;;3.72;;
29344;SDS011;16339;48.748;2.222;2022-08-02T05:11:41;6.60;;;3.60;;
29344;SDS011;16339;48.748;2.222;2022-08-02T05:14:10;7.50;;;3.40;;
29344;SDS011;16339;48.748;2.222;2022-08-02T05:16:39;6.75;;;3.30;;
29344;SDS011;16339;48.748;2.222;2022-08-02T05:19:13;7.55;;;3.40;;
29344;SDS011;16339;48.748;2.222;2022-08-02T05:24:10;8.32;;;3.20;;
29344;SDS011;16339;48.748;2.222;2022-08-02T05:26:39;6.15;;;3.30;;
29344;SDS011;16339;48.748;2.222;2022-08-02T05:29:08;4.32;;;3.00;;
29344;SDS011;16339;48.748;2.222;2022-08-02T05:31:36;12.27;;;3.05;;
29344;SDS011;16339;48.748;2.222;2022-08-02T05:34:05;6.88;;;3.53;;
29344;SDS011;16339;48.748;2.222;2022-08-02T05:36:37;9.68;;;3.88;;
29344;SDS011;16339;48.748;2.222;2022-08-02T05:39:09;5.80;;;3.17;;
29344;SDS011;16339;48.748;2.222;2022-08-02T05:41:41;8.23;;;2.97;;
29344;SDS011;16339;48.748;2.222;2022-08-02T05:44:10;9.70;;;3.20;;
29344;SDS011;16339;48.748;2.222;2022-08-02T05:46:39;4.05;;;2.60;;
29344;SDS011;16339;48.748;2.222;2022-08-02T05:49:07;5.85;;;3.13;;
29344;SDS011;16339;48.748;2.222;2022-08-02T05:51:44;5.15;;;3.15;;
29344;SDS011;16339;48.748;2.222;2022-08-02T05:54:21;6.20;;;2.92;;
29344;SDS011;16339;48.748;2.222;2022-08-02T05:56:55;4.90;;;2.95;;
29344;SDS011;16339;48.748;2.222;2022-08-02T05:59:34;8.13;;;2.97;;
29344;SDS011;16339;48.748;2.222;2022-08-02T06:02:09;7.47;;;3.05;;
29344;SDS011;16339;48.748;2.222;2022-08-02T06:04:48;12.95;;;3.00;;
29344;SDS011;16339;48.748;2.222;2022-08-02T06:07:24;6.78;;;3.15;;
29344;SDS011;16339;48.748;2.222;2022-08-02T06:09:57;5.45;;;2.80;;
29344;SDS011;16339;48.748;2.222;2022-08-02T06:12:30;12.32;;;3.63;;
29344;SDS011;16339;48.748;2.222;2022-08-02T06:15:03;22.13;;;4.60;;
29344;SDS011;16339;48.748;2.222;2022-08-02T06:17:32;5.95;;;2.70;;
29344;SDS011;16339;48.748;2.222;2022-08-02T06:20:01;5.53;;;2.10;;
29344;SDS011;16339;48.748;2.222;2022-08-02T06:22:33;7.10;;;2.28;;
29344;SDS011;16339;48.748;2.222;2022-08-02T06:25:03;6.97;;;2.22;;
29344;SDS011;16339;48.748;2.222;2022-08-02T06:27:33;6.60;;;2.40;;
29344;SDS011;16339;48.748;2.222;2022-08-02T06:30:03;3.88;;;1.83;;
29344;SDS011;16339;48.748;2.222;2022-08-02T06:32:32;5.10;;;2.03;;
29344;SDS011;16339;48.748;2.222;2022-08-02T07:00:11;5.07;;;2.47;;
29344;SDS011;16339;48.748;2.222;2022-08-02T07:02:44;4.90;;;2.60;;
29344;SDS011;16339;48.748;2.222;2022-08-02T07:05:25;5.40;;;2.20;;
29344;SDS011;16339;48.748;2.222;2022-08-02T07:08:26;17.67;;;3.00;;
29344;SDS011;16339;48.748;2.222;2022-08-02T07:10:57;2.92;;;2.20;;
29344;SDS011;16339;48.748;2.222;2022-08-02T07:13:28;5.35;;;2.20;;
29344;SDS011;16339;48.748;2.222;2022-08-02T07:15:57;9.30;;;2.72;;
29344;SDS011;16339;48.748;2.222;2022-08-02T07:18:26;5.20;;;2.75;;
29344;SDS011;16339;48.748;2.222;2022-08-02T07:20:54;7.65;;;2.55;;
29344;SDS011;16339;48.748;2.222;2022-08-02T07:23:23;4.55;;;2.70;;
29344;SDS011;16339;48.748;2.222;2022-08-02T07:25:52;6.13;;;2.53;;
29344;SDS011;16339;48.748;2.222;2022-08-02T07:28:21;8.02;;;2.22;;
29344;SDS011;16339;48.748;2.222;2022-08-02T07:30:54;6.13;;;2.40;;
29344;SDS011;16339;48.748;2.222;2022-08-02T07:35:51;6.03;;;2.40;;
29344;SDS011;16339;48.748;2.222;2022-08-02T07:38:21;5.85;;;2.45;;
29344;SDS011;16339;48.748;2.222;2022-08-02T07:40:50;8.35;;;2.70;;
29344;SDS011;16339;48.748;2.222;2022-08-02T07:43:19;5.10;;;2.70;;
29344;SDS011;16339;48.748;2.222;2022-08-02T07:45:47;5.82;;;2.40;;
29344;SDS011;16339;48.748;2.222;2022-08-02T07:48:19;4.22;;;2.50;;
29344;SDS011;16339;48.748;2.222;2022-08-02T07:50:48;4.25;;;2.10;;
29344;SDS011;16339;48.748;2.222;2022-08-02T07:53:17;4.97;;;2.35;;
29344;SDS011;16339;48.748;2.222;2022-08-02T07:55:46;7.45;;;2.40;;
29344;SDS011;16339;48.748;2.222;2022-08-02T07:58:15;4.13;;;2.15;;
29344;SDS011;16339;48.748;2.222;2022-08-02T08:00:45;5.50;;;2.50;;
29344;SDS011;16339;48.748;2.222;2022-08-02T08:03:14;5.82;;;2.55;;
29344;SDS011;16339;48.748;2.222;2022-08-02T08:05:46;9.25;;;2.80;;
29344;SDS011;16339;48.748;2.222;2022-08-02T08:08:16;5.90;;;2.42;;
29344;SDS011;16339;48.748;2.222;2022-08-02T08:10:45;4.18;;;2.13;;
29344;SDS011;16339;48.748;2.222;2022-08-02T08:13:14;4.57;;;2.53;;
29344;SDS011;16339;48.748;2.222;2022-08-02T08:15:43;7.85;;;3.08;;
29344;SDS011;16339;48.748;2.222;2022-08-02T08:18:12;7.65;;;2.72;;
29344;SDS011;16339;48.748;2.222;2022-08-02T08:20:41;7.88;;;3.10;;
29344;SDS011;16339;48.748;2.222;2022-08-02T08:23:12;7.65;;;2.90;;
29344;SDS011;16339;48.748;2.222;2022-08-02T08:25:47;7.50;;;3.05;;
29344;SDS011;16339;48.748;2.222;2022-08-02T08:28:16;7.72;;;3.03;;
29344;SDS011;16339;48.748;2.222;2022-08-02T08:30:45;5.10;;;2.58;;
29344;SDS011;16339;48.748;2.222;2022-08-02T08:33:14;7.10;;;2.78;;
29344;SDS011;16339;48.748;2.222;2022-08-02T08:35:43;10.55;;;3.38;;
29344;SDS011;16339;48.748;2.222;2022-08-02T08:38:16;4.82;;;2.30;;
29344;SDS011;16339;48.748;2.222;2022-08-02T08:40:45;5.45;;;2.97;;
29344;SDS011;16339;48.748;2.222;2022-08-02T08:45:46;11.02;;;2.70;;
29344;SDS011;16339;48.748;2.222;2022-08-02T08:48:16;7.88;;;2.50;;
29344;SDS011;16339;48.748;2.222;2022-08-02T08:50:50;6.22;;;2.30;;
29344;SDS011;16339;48.748;2.222;2022-08-02T08:53:25;6.00;;;2.60;;
29344;SDS011;16339;48.748;2.222;2022-08-02T08:55:56;7.35;;;2.80;;
29344;SDS011;16339;48.748;2.222;2022-08-02T08:58:27;7.73;;;2.37;;
29344;SDS011;16339;48.748;2.222;2022-08-02T09:00:56;5.55;;;2.45;;
29344;SDS011;16339;48.748;2.222;2022-08-02T09:03:26;3.85;;;2.17;;
29344;SDS011;16339;48.748;2.222;2022-08-02T09:05:59;8.82;;;3.63;;
29344;SDS011;16339;48.748;2.222;2022-08-02T09:08:32;5.43;;;3.80;;
29344;SDS011;16339;48.748;2.222;2022-08-02T09:11:01;8.77;;;3.35;;
29344;SDS011;16339;48.748;2.222;2022-08-02T09:13:40;4.45;;;2.60;;
29344;SDS011;16339;48.748;2.222;2022-08-02T09:16:29;6.13;;;2.70;;
29344;SDS011;16339;48.748;2.222;2022-08-02T09:19:15;3.75;;;2.47;;
29344;SDS011;16339;48.748;2.222;2022-08-02T09:21:45;9.63;;;2.65;;
29344;SDS011;16339;48.748;2.222;2022-08-02T09:24:19;6.50;;;2.47;;
29344;SDS011;16339;48.748;2.222;2022-08-02T09:26:50;2.80;;;2.22;;
29344;SDS011;16339;48.748;2.222;2022-08-02T09:29:20;9.55;;;2.85;;
29344;SDS011;16339;48.748;2.222;2022-08-02T09:31:50;3.45;;;2.30;;
29344;SDS011;16339;48.748;2.222;2022-08-02T09:34:28;7.05;;;2.55;;
29344;SDS011;16339;48.748;2.222;2022-08-02T09:37:20;3.40;;;2.20;;
29344;SDS011;16339;48.748;2.222;2022-08-02T09:39:53;3.20;;;2.17;;
29344;SDS011;16339;48.748;2.222;2022-08-02T09:42:27;5.75;;;2.38;;
29344;SDS011;16339;48.748;2.222;2022-08-02T09:44:57;3.08;;;2.20;;
29344;SDS011;16339;48.748;2.222;2022-08-02T09:47:40;5.05;;;2.28;;
29344;SDS011;16339;48.748;2.222;2022-08-02T09:50:15;6.53;;;2.67;;
29344;SDS011;16339;48.748;2.222;2022-08-02T09:52:47;5.50;;;2.67;;
29344;SDS011;16339;48.748;2.222;2022-08-02T09:55:18;8.73;;;2.72;;
29344;SDS011;16339;48.748;2.222;2022-08-02T09:57:49;8.48;;;2.60;;
29344;SDS011;16339;48.748;2.222;2022-08-02T10:00:18;4.82;;;2.47;;
29344;SDS011;16339;48.748;2.222;2022-08-02T10:05:47;4.93;;;2.15;;
29344;SDS011;16339;48.748;2.222;2022-08-02T10:08:17;7.97;;;2.70;;
29344;SDS011;16339;48.748;2.222;2022-08-02T10:10:49;4.38;;;2.50;;
29344;SDS011;16339;48.748;2.222;2022-08-02T10:13:25;8.48;;;2.15;;
29344;SDS011;16339;48.748;2.222;2022-08-02T10:15:55;6.53;;;2.60;;
29344;SDS011;16339;48.748;2.222;2022-08-02T10:18:24;3.35;;;2.25;;
29344;SDS011;16339;48.748;2.222;2022-08-02T10:20:53;3.97;;;2.00;;
29344;SDS011;16339;48.748;2.222;2022-08-02T10:23:24;5.43;;;2.28;;
29344;SDS011;16339;48.748;2.222;2022-08-02T10:25:56;6.25;;;1.85;;
29344;SDS011;16339;48.748;2.222;2022-08-02T10:28:26;8.30;;;2.60;;
29344;SDS011;16339;48.748;2.222;2022-08-02T10:33:26;9.43;;;2.35;;
29344;SDS011;16339;48.748;2.222;2022-08-02T10:35:58;3.78;;;2.30;;
29344;SDS011;16339;48.748;2.222;2022-08-02T10:38:28;5.63;;;1.90;;
29344;SDS011;16339;48.748;2.222;2022-08-02T10:41:00;3.03;;;2.20;;
29344;SDS011;16339;48.748;2.222;2022-08-02T10:43:39;4.97;;;1.80;;
29344;SDS011;16339;48.748;2.222;2022-08-02T10:46:31;5.80;;;2.20;;
29344;SDS011;16339;48.748;2.222;2022-08-02T10:49:05;3.35;;;2.22;;
29344;SDS011;16339;48.748;2.222;2022-08-02T10:54:36;2.88;;;1.80;;
29344;SDS011;16339;48.748;2.222;2022-08-02T10:59:48;5.03;;;1.73;;
29344;SDS011;16339;48.748;2.222;2022-08-02T11:05:10;3.03;;;2.00;;
29344;SDS011;16339;48.748;2.222;2022-08-02T11:07:41;2.78;;;2.13;;
29344;SDS011;16339;48.748;2.222;2022-08-02T11:13:10;4.18;;;1.63;;
29344;SDS011;16339;48.748;2.222;2022-08-02T11:15:47;3.70;;;1.60;;
29344;SDS011;16339;48.748;2.222;2022-08-02T11:19:00;3.28;;;1.42;;
29344;SDS011;16339;48.748;2.222;2022-08-02T11:21:27;3.38;;;1.70;;
29344;SDS011;16339;48.748;2.222;2022-08-02T11:24:22;1.80;;;1.58;;
29344;SDS011;16339;48.748;2.222;2022-08-02T11:26:53;9.75;;;1.75;;
29344;SDS011;16339;48.748;2.222;2022-08-02T11:29:32;3.20;;;1.50;;
29344;SDS011;16339;48.748;2.222;2022-08-02T11:32:03;6.70;;;1.58;;
29344;SDS011;16339;48.748;2.222;2022-08-02T11:34:32;1.50;;;1.40;;
29344;SDS011;16339;48.748;2.222;2022-08-02T11:37:01;3.53;;;1.70;;
29344;SDS011;16339;48.748;2.222;2022-08-02T11:39:30;2.55;;;1.60;;
29344;SDS011;16339;48.748;2.222;2022-08-02T11:41:59;4.53;;;1.40;;
29344;SDS011;16339;48.748;2.222;2022-08-02T11:44:28;5.53;;;1.30;;
29344;SDS011;16339;48.748;2.222;2022-08-02T11:47:08;8.25;;;1.45;;
29344;SDS011;16339;48.748;2.222;2022-08-02T11:49:38;4.38;;;1.50;;
29344;SDS011;16339;48.748;2.222;2022-08-02T11:52:08;1.65;;;1.40;;
29344;SDS011;16339;48.748;2.222;2022-08-02T11:54:38;3.55;;;1.48;;
29344;SDS011;16339;48.748;2.222;2022-08-02T11:57:08;2.58;;;1.55;;
29344;SDS011;16339;48.748;2.222;2022-08-02T11:59:37;4.57;;;1.60;;
29344;SDS011;16339;48.748;2.222;2022-08-02T12:02:09;4.60;;;1.60;;
29344;SDS011;16339;48.748;2.222;2022-08-02T12:04:39;2.13;;;1.25;;
29344;SDS011;16339;48.748;2.222;2022-08-02T12:07:08;1.80;;;1.50;;
29344;SDS011;16339;48.748;2.222;2022-08-02T12:09:36;3.47;;;1.60;;
29344;SDS011;16339;48.748;2.222;2022-08-02T12:14:42;4.10;;;1.60;;
29344;SDS011;16339;48.748;2.222;2022-08-02T12:17:13;2.22;;;1.50;;
29344;SDS011;16339;48.748;2.222;2022-08-02T12:22:31;1.95;;;1.20;;
29344;SDS011;16339;48.748;2.222;2022-08-02T12:25:13;4.80;;;1.40;;
29344;SDS011;16339;48.748;2.222;2022-08-02T12:27:44;2.67;;;1.50;;
29344;SDS011;16339;48.748;2.222;2022-08-02T12:30:13;1.55;;;1.30;;
29344;SDS011;16339;48.748;2.222;2022-08-02T12:35:15;2.25;;;1.00;;
29344;SDS011;16339;48.748;2.222;2022-08-02T12:37:47;2.22;;;1.42;;
29344;SDS011;16339;48.748;2.222;2022-08-02T12:40:17;2.05;;;1.17;;
29344;SDS011;16339;48.748;2.222;2022-08-02T12:42:49;5.70;;;1.83;;
29344;SDS011;16339;48.748;2.222;2022-08-02T12:45:18;2.20;;;1.43;;
29344;SDS011;16339;48.748;2.222;2022-08-02T12:47:51;2.80;;;1.30;;
29344;SDS011;16339;48.748;2.222;2022-08-02T12:50:24;4.63;;;1.08;;
29344;SDS011;16339;48.748;2.222;2022-08-02T12:53:02;3.13;;;1.30;;
29344;SDS011;16339;48.748;2.222;2022-08-02T12:55:32;1.80;;;1.30;;
29344;SDS011;16339;48.748;2.222;2022-08-02T12:58:04;3.83;;;1.23;;
29344;SDS011;16339;48.748;2.222;2022-08-02T13:00:34;2.58;;;1.25;;
29344;SDS011;16339;48.748;2.222;2022-08-02T13:03:07;2.80;;;1.27;;
29344;SDS011;16339;48.748;2.222;2022-08-02T13:05:36;5.55;;;1.30;;
29344;SDS011;16339;48.748;2.222;2022-08-02T13:08:04;1.88;;;1.20;;
29344;SDS011;16339;48.748;2.222;2022-08-02T13:10:33;1.67;;;1.17;;
29344;SDS011;16339;48.748;2.222;2022-08-02T13:13:02;5.60;;;1.30;;
29344;SDS011;16339;48.748;2.222;2022-08-02T13:15:31;2.88;;;1.02;;
29344;SDS011;16339;48.748;2.222;2022-08-02T13:18:03;6.63;;;1.48;;
29344;SDS011;16339;48.748;2.222;2022-08-02T13:20:35;1.45;;;0.90;;
29344;SDS011;16339;48.748;2.222;2022-08-02T13:23:18;3.88;;;1.20;;
29344;SDS011;16339;48.748;2.222;2022-08-02T13:25:48;2.63;;;1.20;;
29344;SDS011;16339;48.748;2.222;2022-08-02T13:28:18;1.70;;;1.13;;
29344;SDS011;16339;48.748;2.222;2022-08-02T13:30:47;3.45;;;1.20;;
29344;SDS011;16339;48.748;2.222;2022-08-02T13:33:19;1.08;;;0.98;;
29344;SDS011;16339;48.748;2.222;2022-08-02T15:20:24;3.65;;;1.42;;
29344;SDS011;16339;48.748;2.222;2022-08-02T15:22:56;2.83;;;1.27;;
29344;SDS011;16339;48.748;2.222;2022-08-02T15:53:57;5.35;;;1.10;;
29344;SDS011;16339;48.748;2.222;2022-08-02T15:59:58;2.55;;;1.40;;
29344;SDS011;16339;48.748;2.222;2022-08-02T16:10:44;4.05;;;0.90;;
29344;SDS011;16339;48.748;2.222;2022-08-02T16:15:53;5.75;;;1.35;;
29344;SDS011;16339;48.748;2.222;2022-08-02T16:21:02;3.50;;;1.30;;
29344;SDS011;16339;48.748;2.222;2022-08-02T16:23:31;1.70;;;1.02;;
29344;SDS011;16339;48.748;2.222;2022-08-02T16:26:04;4.00;;;1.10;;
29344;SDS011;16339;48.748;2.222;2022-08-02T16:29:03;3.35;;;1.08;;
29344;SDS011;16339;48.748;2.222;2022-08-02T16:32:15;2.05;;;1.17;;
29344;SDS011;16339;48.748;2.222;2022-08-02T16:34:46;2.72;;;1.33;;
29344;SDS011;16339;48.748;2.222;2022-08-02T16:37:15;3.67;;;1.05;;
29344;SDS011;16339;48.748;2.222;2022-08-02T16:39:56;5.03;;;0.98;;
29344;SDS011;16339;48.748;2.222;2022-08-02T16:42:36;1.95;;;0.82;;
29344;SDS011;16339;48.748;2.222;2022-08-02T16:45:20;1.23;;;0.90;;
29344;SDS011;16339;48.748;2.222;2022-08-02T16:47:51;2.10;;;1.27;;
29344;SDS011;16339;48.748;2.222;2022-08-02T16:50:20;1.00;;;0.90;;
29344;SDS011;16339;48.748;2.222;2022-08-02T16:52:49;4.07;;;1.10;;
29344;SDS011;16339;48.748;2.222;2022-08-02T16:55:18;2.53;;;0.90;;
29344;SDS011;16339;48.748;2.222;2022-08-02T16:57:49;2.55;;;1.00;;
29344;SDS011;16339;48.748;2.222;2022-08-02T17:00:18;9.05;;;5.38;;
29344;SDS011;16339;48.748;2.222;2022-08-02T17:02:47;1.02;;;0.93;;
29344;SDS011;16339;48.748;2.222;2022-08-02T17:05:16;3.45;;;1.08;;
29344;SDS011;16339;48.748;2.222;2022-08-02T17:07:44;3.63;;;0.93;;
29344;SDS011;16339;48.748;2.222;2022-08-02T17:10:13;1.98;;;0.80;;
29344;SDS011;16339;48.748;2.222;2022-08-02T17:12:42;2.42;;;1.10;;
29344;SDS011;16339;48.748;2.222;2022-08-02T17:15:14;9.43;;;5.10;;
29344;SDS011;16339;48.748;2.222;2022-08-02T17:17:42;6.22;;;3.30;;
29344;SDS011;16339;48.748;2.222;2022-08-02T17:20:11;5.35;;;1.77;;
29344;SDS011;16339;48.748;2.222;2022-08-02T17:22:40;2.88;;;1.73;;
29344;SDS011;16339;48.748;2.222;2022-08-02T17:34:47;1.52;;;0.90;;
29344;SDS011;16339;48.748;2.222;2022-08-02T17:37:21;1.13;;;0.80;;
29344;SDS011;16339;48.748;2.222;2022-08-02T17:39:50;2.35;;;0.82;;
29344;SDS011;16339;48.748;2.222;2022-08-02T17:42:19;1.65;;;0.98;;
29344;SDS011;16339;48.748;2.222;2022-08-02T17:44:50;1.27;;;0.90;;
29344;SDS011;16339;48.748;2.222;2022-08-02T17:50:02;2.75;;;0.95;;
29344;SDS011;16339;48.748;2.222;2022-08-02T17:52:33;2.78;;;0.90;;
29344;SDS011;16339;48.748;2.222;2022-08-02T17:55:11;4.20;;;0.80;;
29344;SDS011;16339;48.748;2.222;2022-08-02T17:57:41;2.08;;;0.95;;
29344;SDS011;16339;48.748;2.222;2022-08-02T18:00:14;1.65;;;0.82;;
29344;SDS011;16339;48.748;2.222;2022-08-02T18:02:44;1.38;;;0.93;;
29344;SDS011;16339;48.748;2.222;2022-08-02T18:05:38;1.85;;;1.00;;
29344;SDS011;16339;48.748;2.222;2022-08-02T18:08:57;2.30;;;0.93;;
29344;SDS011;16339;48.748;2.222;2022-08-02T18:11:57;1.42;;;0.90;;
29344;SDS011;16339;48.748;2.222;2022-08-02T18:14:30;3.08;;;1.00;;
29344;SDS011;16339;48.748;2.222;2022-08-02T18:17:04;1.13;;;0.80;;
29344;SDS011;16339;48.748;2.222;2022-08-02T18:19:35;1.05;;;0.80;;
29344;SDS011;16339;48.748;2.222;2022-08-02T18:22:06;4.55;;;1.10;;
29344;SDS011;16339;48.748;2.222;2022-08-02T18:24:36;6.60;;;1.08;;
29344;SDS011;16339;48.748;2.222;2022-08-02T18:27:05;1.93;;;0.93;;
29344;SDS011;16339;48.748;2.222;2022-08-02T18:29:35;1.17;;;0.82;;
29344;SDS011;16339;48.748;2.222;2022-08-02T18:32:25;3.17;;;1.38;;
29344;SDS011;16339;48.748;2.222;2022-08-02T18:35:05;2.58;;;1.10;;
29344;SDS011;16339;48.748;2.222;2022-08-02T18:37:37;1.83;;;1.00;;
29344;SDS011;16339;48.748;2.222;2022-08-02T18:40:07;5.68;;;1.10;;
29344;SDS011;16339;48.748;2.222;2022-08-02T18:42:48;2.55;;;0.93;;
29344;SDS011;16339;48.748;2.222;2022-08-02T18:46:14;1.67;;;0.93;;
29344;SDS011;16339;48.748;2.222;2022-08-02T18:49:52;5.68;;;0.95;;
29344;SDS011;16339;48.748;2.222;2022-08-02T18:52:26;1.25;;;0.90;;
29344;SDS011;16339;48.748;2.222;2022-08-02T18:55:05;2.10;;;1.00;;
29344;SDS011;16339;48.748;2.222;2022-08-02T18:57:43;3.38;;;1.20;;
29344;SDS011;16339;48.748;2.222;2022-08-02T19:03:49;4.55;;;1.08;;
29344;SDS011;16339;48.748;2.222;2022-08-02T19:06:25;3.90;;;1.25;;